Time;durP1;ratioP1;P1;durP2;ratioP2;P2;SDS_P1;SDS_P2;PMS_P1;PMS_P2;Temp;Humidity;BMP_temperature;BMP_pressure;BME280_temperature;BME280_humidity;BME280_pressure;Samples;Min_cycle;Max_cycle;Signal;HPM_P1;HPM_P2
2021/11/04 00:01:42;;;;;;;16.70;14.97;;;8.50;99.90;;;;;;5017667;28;20186;-86
2021/11/04 00:04:08;;;;;;;19.13;15.47;;;8.50;99.90;;;;;;5017724;28;20197;-86
2021/11/04 00:06:34;;;;;;;18.47;15.30;;;8.60;99.90;;;;;;5025948;28;20174;-84
2021/11/04 00:09:03;;;;;;;16.67;14.87;;;8.60;99.90;;;;;;5043666;28;20207;-83
2021/11/04 00:11:30;;;;;;;16.93;15.23;;;8.60;99.90;;;;;;5043039;28;20277;-86
2021/11/04 00:13:56;;;;;;;17.37;15.43;;;8.70;99.90;;;;;;5039907;28;20181;-84
2021/11/04 00:16:22;;;;;;;19.03;15.77;;;9.00;99.90;;;;;;5037539;28;20170;-85
2021/11/04 00:18:48;;;;;;;16.33;14.70;;;8.80;99.90;;;;;;5044968;28;20205;-85
2021/11/04 00:21:14;;;;;;;17.43;15.50;;;8.50;99.90;;;;;;5039719;28;20188;-84
2021/11/04 00:23:40;;;;;;;17.20;15.03;;;8.30;99.90;;;;;;5029588;28;20297;-86
2021/11/04 00:26:07;;;;;;;18.00;14.43;;;8.20;99.90;;;;;;5031617;28;20194;-85
2021/11/04 00:28:40;;;;;;;16.47;14.70;;;8.20;99.90;;;;;;5036242;28;20217;-85
2021/11/04 00:31:09;;;;;;;16.93;15.17;;;8.00;99.90;;;;;;5029268;28;20605;-85
2021/11/04 00:33:43;;;;;;;15.93;14.23;;;8.10;99.90;;;;;;5018561;28;20654;-86
2021/11/04 00:36:13;;;;;;;17.97;16.07;;;8.20;99.90;;;;;;5015825;28;20213;-85
2021/11/04 00:38:39;;;;;;;18.00;15.43;;;8.10;99.90;;;;;;5016285;28;20237;-85
2021/11/04 00:41:05;;;;;;;16.77;14.97;;;8.10;99.90;;;;;;5024335;28;20190;-89
2021/11/04 00:43:33;;;;;;;16.47;14.53;;;8.10;99.90;;;;;;5036054;28;20642;-89
2021/11/04 00:45:59;;;;;;;17.50;14.70;;;8.10;99.90;;;;;;5025823;28;20187;-86
2021/11/04 00:48:25;;;;;;;17.00;14.57;;;8.00;99.90;;;;;;5019066;28;20229;-87
2021/11/04 00:50:52;;;;;;;17.03;15.10;;;7.90;99.90;;;;;;5015875;28;20189;-86
2021/11/04 00:53:18;;;;;;;16.70;14.87;;;7.80;99.90;;;;;;5016415;28;20233;-85
2021/11/04 00:55:44;;;;;;;16.43;14.50;;;7.80;99.90;;;;;;5014084;28;20203;-85
2021/11/04 00:58:20;;;;;;;18.27;15.13;;;7.80;99.90;;;;;;5014483;28;20186;-85
2021/11/04 01:00:50;;;;;;;16.97;15.17;;;7.90;99.90;;;;;;5013975;28;20182;-85
2021/11/04 01:03:17;;;;;;;20.40;15.73;;;7.70;99.90;;;;;;5014241;28;20658;-87
2021/11/04 01:05:44;;;;;;;17.90;16.00;;;7.70;99.90;;;;;;5014624;28;20245;-84
2021/11/04 01:08:12;;;;;;;18.10;15.83;;;7.70;99.90;;;;;;5015246;28;20209;-83
2021/11/04 01:10:40;;;;;;;17.13;15.10;;;7.70;99.90;;;;;;5014767;28;20189;-86
2021/11/04 01:13:07;;;;;;;17.60;15.10;;;7.50;99.90;;;;;;5016555;28;20221;-88
2021/11/04 01:15:33;;;;;;;16.20;14.50;;;7.60;99.90;;;;;;5016303;28;20182;-88
2021/11/04 01:17:59;;;;;;;17.10;14.13;;;7.50;99.90;;;;;;5016205;28;20209;-89
2021/11/04 01:20:25;;;;;;;18.17;14.40;;;7.40;99.90;;;;;;5015612;28;20265;-87
2021/11/04 01:22:57;;;;;;;19.33;14.83;;;7.40;99.90;;;;;;5014910;28;20190;-85
2021/11/04 01:25:26;;;;;;;17.47;15.57;;;7.40;99.90;;;;;;5014023;28;20186;-85
2021/11/04 01:27:52;;;;;;;17.00;15.20;;;7.40;99.90;;;;;;5014135;28;20690;-86
2021/11/04 01:30:38;;;;;;;17.20;14.77;;;7.40;99.90;;;;;;4997573;28;20233;-85
2021/11/04 01:33:05;;;;;;;16.90;15.07;;;7.20;99.90;;;;;;4997456;28;20277;-86
2021/11/04 01:35:31;;;;;;;15.80;14.20;;;7.20;99.90;;;;;;5014005;28;20189;-87
2021/11/04 01:38:02;;;;;;;16.40;14.70;;;7.10;99.90;;;;;;5014523;28;20182;-86
2021/11/04 01:40:31;;;;;;;16.40;14.80;;;7.20;99.90;;;;;;5013791;28;20186;-85
2021/11/04 01:42:58;;;;;;;18.13;16.27;;;7.30;99.90;;;;;;5013730;28;20210;-86
2021/11/04 01:45:29;;;;;;;16.67;14.87;;;7.30;99.90;;;;;;5013894;28;20201;-85
2021/11/04 01:48:15;;;;;;;18.63;16.83;;;7.10;99.90;;;;;;5013801;28;20226;-86
2021/11/04 01:50:42;;;;;;;17.47;15.60;;;7.10;99.90;;;;;;5013396;28;20236;-85
2021/11/04 01:53:08;;;;;;;18.20;16.03;;;7.00;99.90;;;;;;5013992;28;20195;-85
2021/11/04 01:55:39;;;;;;;17.13;15.23;;;6.90;99.90;;;;;;5013987;28;20329;-87
2021/11/04 01:58:05;;;;;;;17.20;15.50;;;7.00;99.90;;;;;;5013982;28;20651;-85
2021/11/04 02:00:35;;;;;;;18.23;14.67;;;6.90;99.90;;;;;;5013125;28;20639;-85
2021/11/04 02:03:22;;;;;;;16.83;15.03;;;6.80;99.90;;;;;;5013254;28;20212;-85
2021/11/04 02:05:57;;;;;;;17.87;16.07;;;6.80;99.90;;;;;;5013057;28;20189;-85
2021/11/04 02:08:34;;;;;;;18.63;14.93;;;6.90;99.90;;;;;;5013354;28;20399;-88
2021/11/04 02:11:15;;;;;;;17.87;16.00;;;6.80;99.90;;;;;;5014242;28;20178;-86
2021/11/04 02:13:52;;;;;;;18.00;16.10;;;6.80;99.90;;;;;;5013809;28;20178;-89
2021/11/04 02:16:20;;;;;;;17.07;15.17;;;6.80;99.90;;;;;;5015543;28;20605;-88
2021/11/04 02:18:52;;;;;;;17.27;15.50;;;6.80;99.90;;;;;;5013774;28;20201;-86
2021/11/04 02:21:40;;;;;;;17.47;15.60;;;6.60;99.90;;;;;;5014516;28;20248;-90
2021/11/04 02:24:29;;;;;;;18.17;14.30;;;6.60;99.90;;;;;;5014249;28;20591;-90
2021/11/04 02:26:56;;;;;;;16.20;14.50;;;6.60;99.90;;;;;;5013807;28;20269;-88
2021/11/04 02:29:22;;;;;;;17.10;15.30;;;6.80;99.90;;;;;;5013705;28;20206;-87
2021/11/04 02:31:49;;;;;;;17.53;15.73;;;6.80;99.90;;;;;;5013788;28;20622;-89
2021/11/04 02:34:15;;;;;;;17.40;15.57;;;6.70;99.90;;;;;;5013673;28;20273;-86
2021/11/04 02:36:42;;;;;;;17.60;15.70;;;6.90;99.90;;;;;;5012486;28;20196;-86
2021/11/04 02:39:12;;;;;;;17.73;15.93;;;6.80;99.90;;;;;;5012871;28;20249;-86
2021/11/04 02:41:38;;;;;;;18.30;16.00;;;6.80;99.90;;;;;;5012590;28;20217;-85
2021/11/04 02:44:08;;;;;;;18.23;15.53;;;6.60;99.90;;;;;;5013253;28;20186;-87
2021/11/04 02:46:35;;;;;;;16.67;14.90;;;6.60;99.90;;;;;;5012887;28;20205;-87
2021/11/04 02:49:06;;;;;;;17.20;15.50;;;6.70;99.90;;;;;;5012436;28;20313;-85
2021/11/04 02:51:35;;;;;;;16.93;15.10;;;6.40;99.90;;;;;;5013154;28;20257;-86
2021/11/04 02:54:01;;;;;;;17.80;15.50;;;6.40;99.90;;;;;;5012753;28;20193;-87
2021/11/04 02:56:47;;;;;;;17.57;14.57;;;6.50;99.90;;;;;;5013044;28;20194;-86
2021/11/04 02:59:18;;;;;;;16.07;14.37;;;6.40;99.90;;;;;;5012719;28;20190;-87
2021/11/04 03:01:47;;;;;;;17.60;15.37;;;6.60;99.90;;;;;;5013076;28;20193;-86
2021/11/04 03:04:16;;;;;;;18.57;14.77;;;6.80;99.90;;;;;;5012684;28;20186;-88
2021/11/04 03:06:43;;;;;;;17.47;15.60;;;6.60;99.90;;;;;;5013507;28;20190;-88
2021/11/04 03:09:09;;;;;;;18.00;16.17;;;6.80;99.90;;;;;;5014583;28;20178;-89
2021/11/04 03:11:35;;;;;;;19.73;16.40;;;7.20;99.90;;;;;;5013098;28;20182;-88
2021/11/04 03:14:03;;;;;;;21.27;16.47;;;7.00;99.90;;;;;;5014057;28;20178;-88
2021/11/04 03:16:42;;;;;;;18.63;16.63;;;7.30;99.90;;;;;;5014154;28;20175;-88
2021/11/04 03:19:13;;;;;;;21.47;16.73;;;6.90;99.90;;;;;;5013045;28;20294;-88
2021/11/04 03:21:45;;;;;;;19.70;16.80;;;7.00;99.90;;;;;;5013697;28;20651;-87
2021/11/04 03:24:13;;;;;;;17.53;15.63;;;6.90;99.90;;;;;;5013600;28;20201;-88
2021/11/04 03:26:44;;;;;;;18.33;15.40;;;6.80;99.90;;;;;;5013138;28;20185;-87
2021/11/04 03:29:13;;;;;;;16.70;15.00;;;6.60;99.90;;;;;;5013253;28;20289;-86
2021/11/04 03:31:42;;;;;;;17.23;15.10;;;6.60;99.90;;;;;;5013087;28;20187;-87
2021/11/04 03:34:09;;;;;;;18.53;14.87;;;6.60;99.90;;;;;;5014047;28;20179;-86
2021/11/04 03:36:41;;;;;;;19.87;15.70;;;6.60;99.90;;;;;;5015471;28;20178;-86
2021/11/04 03:39:07;;;;;;;19.23;15.60;;;6.60;99.90;;;;;;5020696;28;20166;-85
2021/11/04 03:41:34;;;;;;;19.07;16.13;;;6.90;99.90;;;;;;5030549;28;20270;-86
2021/11/04 03:44:00;;;;;;;18.10;16.27;;;7.00;99.90;;;;;;5034185;28;20697;-85
2021/11/04 03:46:30;;;;;;;18.07;16.17;;;6.80;99.90;;;;;;5027667;28;20214;-86
2021/11/04 03:48:56;;;;;;;20.57;16.90;;;6.80;99.90;;;;;;5017446;28;20186;-85
2021/11/04 03:51:24;;;;;;;17.43;15.53;;;6.70;99.90;;;;;;5015940;28;20236;-84
2021/11/04 03:53:52;;;;;;;16.87;15.07;;;6.70;99.90;;;;;;5015390;28;20189;-85
2021/11/04 03:56:21;;;;;;;18.83;15.57;;;6.60;99.90;;;;;;5016797;28;20265;-85
2021/11/04 03:58:47;;;;;;;19.53;13.63;;;6.70;99.90;;;;;;5015257;28;20234;-84
2021/11/04 04:01:15;;;;;;;16.57;14.90;;;6.50;99.90;;;;;;5015562;28;20189;-85
2021/11/04 04:03:43;;;;;;;17.60;14.87;;;6.50;99.90;;;;;;5015507;28;20190;-86
2021/11/04 04:06:10;;;;;;;16.87;14.83;;;6.50;99.90;;;;;;5015447;28;20190;-86
2021/11/04 04:08:41;;;;;;;16.70;14.53;;;6.30;99.90;;;;;;5016830;28;20229;-88
2021/11/04 04:11:06;;;;;;;16.70;14.90;;;6.50;99.90;;;;;;5016456;28;20179;-89
2021/11/04 04:13:33;;;;;;;17.70;15.40;;;6.20;99.90;;;;;;5016816;28;20269;-87
2021/11/04 04:16:02;;;;;;;17.30;14.70;;;6.20;99.90;;;;;;5016605;28;20182;-88
2021/11/04 04:18:32;;;;;;;16.33;14.63;;;6.20;99.90;;;;;;5017517;28;20193;-88
2021/11/04 04:21:02;;;;;;;16.83;14.80;;;6.20;99.90;;;;;;5016052;28;20642;-85
2021/11/04 04:23:28;;;;;;;17.63;15.53;;;6.30;99.90;;;;;;5015475;28;20179;-85
2021/11/04 04:25:55;;;;;;;17.20;15.40;;;6.30;99.90;;;;;;5014735;28;20193;-85
2021/11/04 04:28:21;;;;;;;16.27;14.20;;;6.20;99.90;;;;;;5015531;28;20757;-85
2021/11/04 04:30:47;;;;;;;21.30;14.87;;;6.50;99.90;;;;;;5015367;28;20269;-86
2021/11/04 04:33:13;;;;;;;16.77;14.97;;;6.60;99.90;;;;;;5018939;28;20196;-87
2021/11/04 04:35:39;;;;;;;16.57;14.73;;;6.50;99.90;;;;;;5018268;28;20182;-86
2021/11/04 04:38:05;;;;;;;17.90;15.90;;;6.40;99.90;;;;;;5017805;28;20198;-85
2021/11/04 04:40:35;;;;;;;17.43;14.60;;;6.60;99.90;;;;;;5016286;28;20179;-83
2021/11/04 04:43:04;;;;;;;18.87;15.57;;;6.50;99.90;;;;;;5016241;28;20202;-84
2021/11/04 04:45:30;;;;;;;18.00;16.10;;;6.50;99.90;;;;;;5017025;28;20248;-83
2021/11/04 04:47:55;;;;;;;18.80;15.53;;;6.60;99.90;;;;;;5016297;28;20681;-83
2021/11/04 04:50:21;;;;;;;19.97;16.83;;;6.60;99.90;;;;;;5016435;28;20185;-83
2021/11/04 04:52:47;;;;;;;19.80;17.67;;;6.60;99.90;;;;;;5015824;28;20658;-83
2021/11/04 04:55:13;;;;;;;19.47;17.20;;;6.60;99.90;;;;;;5015664;28;20186;-83
2021/11/04 04:57:39;;;;;;;19.47;17.37;;;6.50;99.90;;;;;;5015702;28;20186;-83
2021/11/04 05:00:18;;;;;;;19.23;17.23;;;6.30;99.90;;;;;;5015274;28;20174;-83
2021/11/04 05:02:45;;;;;;;20.27;17.43;;;6.50;99.90;;;;;;5017247;28;20209;-85
2021/11/04 05:05:12;;;;;;;21.77;18.53;;;6.60;99.90;;;;;;5015682;28;20174;-85
2021/11/04 05:07:38;;;;;;;20.57;18.37;;;6.80;99.90;;;;;;5016537;28;20210;-84
2021/11/04 05:10:05;;;;;;;21.47;19.17;;;6.90;99.90;;;;;;5017951;28;20175;-85
2021/11/04 05:12:32;;;;;;;24.20;20.47;;;6.60;99.90;;;;;;5023153;28;20186;-84
2021/11/04 05:15:03;;;;;;;26.90;21.03;;;6.60;99.90;;;;;;5025145;28;20242;-84
2021/11/04 05:17:29;;;;;;;26.23;20.17;;;6.70;99.90;;;;;;5029904;28;20182;-84
2021/11/04 05:19:55;;;;;;;27.83;21.27;;;6.50;99.90;;;;;;5032679;28;20254;-85
2021/11/04 05:22:27;;;;;;;28.73;21.50;;;6.40;99.90;;;;;;5035498;28;20197;-84
2021/11/04 05:24:52;;;;;;;29.83;23.27;;;6.60;99.90;;;;;;5036917;28;20234;-85
2021/11/04 05:27:24;;;;;;;36.47;25.30;;;6.60;99.90;;;;;;5033738;28;20226;-87
2021/11/04 05:29:50;;;;;;;35.10;25.97;;;6.40;99.90;;;;;;5025314;28;20721;-87
2021/11/04 05:32:18;;;;;;;34.97;25.63;;;6.40;99.90;;;;;;5021320;28;20182;-87
2021/11/04 05:34:44;;;;;;;38.03;26.83;;;6.40;99.90;;;;;;5029600;28;20182;-85
2021/11/04 05:37:10;;;;;;;39.50;27.60;;;6.70;99.90;;;;;;5027550;28;20182;-87
2021/11/04 05:39:38;;;;;;;36.57;27.10;;;6.80;99.90;;;;;;5025995;28;20187;-85
2021/11/04 05:42:05;;;;;;;38.60;27.17;;;6.80;99.90;;;;;;5023724;28;20198;-83
2021/11/04 05:44:31;;;;;;;37.67;26.97;;;6.60;99.90;;;;;;5020274;28;20193;-84
2021/11/04 05:46:58;;;;;;;36.77;25.63;;;6.60;99.90;;;;;;5016370;28;20213;-87
2021/11/04 05:49:24;;;;;;;40.07;25.63;;;6.40;99.90;;;;;;5017104;28;20233;-89
2021/11/04 05:51:53;;;;;;;42.17;25.23;;;6.40;99.90;;;;;;5015166;28;20178;-88
2021/11/04 05:54:20;;;;;;;40.17;24.73;;;6.30;99.90;;;;;;5015956;28;20182;-85
2021/11/04 05:56:46;;;;;;;39.47;25.63;;;6.00;99.90;;;;;;5015302;28;20256;-85
2021/11/04 05:59:12;;;;;;;38.03;25.97;;;6.00;99.90;;;;;;5016774;28;20187;-82
2021/11/04 06:01:37;;;;;;;40.07;25.80;;;6.10;99.90;;;;;;5016161;28;20179;-84
2021/11/04 06:04:04;;;;;;;48.60;25.97;;;5.90;99.90;;;;;;5015836;28;20186;-85
2021/11/04 06:06:33;;;;;;;41.70;26.70;;;5.70;99.90;;;;;;5014296;28;20596;-84
2021/11/04 06:09:07;;;;;;;45.47;25.67;;;5.80;99.90;;;;;;5017569;28;20190;-87
2021/11/04 06:11:33;;;;;;;44.50;25.43;;;5.70;99.90;;;;;;5027962;28;20190;-87
2021/11/04 06:14:02;;;;;;;65.00;26.60;;;5.80;99.90;;;;;;5031394;28;20242;-87
2021/11/04 06:16:27;;;;;;;68.97;26.17;;;5.90;99.90;;;;;;5031726;28;20186;-87
2021/11/04 06:18:53;;;;;;;60.73;27.63;;;6.00;99.90;;;;;;5027071;28;20237;-88
2021/11/04 06:21:19;;;;;;;63.73;27.00;;;5.50;99.90;;;;;;5021877;28;20178;-89
2021/11/04 06:23:45;;;;;;;88.33;26.43;;;5.80;99.90;;;;;;5016817;28;20314;-88
2021/11/04 06:26:11;;;;;;;63.23;27.73;;;5.70;99.90;;;;;;5018005;28;20182;-88
2021/11/04 06:28:40;;;;;;;39.43;26.57;;;5.80;99.90;;;;;;5020377;28;20230;-89
2021/11/04 06:31:11;;;;;;;59.43;26.63;;;5.80;99.90;;;;;;5018410;28;20631;-88
2021/11/04 06:33:37;;;;;;;49.00;27.80;;;5.80;99.90;;;;;;5018551;28;20277;-87
2021/11/04 06:36:03;;;;;;;46.53;26.53;;;5.70;99.90;;;;;;5016751;28;20269;-88
2021/11/04 06:38:31;;;;;;;98.80;29.47;;;6.00;99.90;;;;;;5016437;28;20197;-85
2021/11/04 06:40:59;;;;;;;59.33;28.37;;;6.10;99.90;;;;;;5015578;28;20183;-90
2021/11/04 06:43:28;;;;;;;57.70;26.93;;;6.10;99.90;;;;;;5000250;28;20205;-88
2021/11/04 06:45:57;;;;;;;52.07;28.07;;;5.90;99.90;;;;;;5006087;28;20225;-88
2021/11/04 06:48:31;;;;;;;51.47;27.77;;;5.70;99.90;;;;;;5015475;28;20234;-89
2021/11/04 06:50:59;;;;;;;53.37;28.47;;;5.70;99.90;;;;;;5017017;28;20218;-89
2021/11/04 06:53:30;;;;;;;60.77;26.50;;;5.70;99.90;;;;;;5017033;28;20205;-90
2021/11/04 06:56:01;;;;;;;77.43;28.60;;;5.80;99.90;;;;;;5017103;28;20193;-89
2021/11/04 06:58:30;;;;;;;44.67;26.57;;;5.70;99.90;;;;;;5025853;28;20548;-88
2021/11/04 07:01:00;;;;;;;55.20;26.87;;;5.70;99.90;;;;;;5023057;28;20186;-89
2021/11/04 07:03:30;;;;;;;53.67;28.10;;;5.90;99.90;;;;;;5020361;28;20174;-90
2021/11/04 07:06:11;;;;;;;46.83;28.00;;;6.00;99.90;;;;;;5016966;28;20189;-88
2021/11/04 07:08:43;;;;;;;49.40;25.83;;;6.00;99.90;;;;;;5033337;28;20257;-88
2021/11/04 07:11:11;;;;;;;72.43;26.70;;;5.80;99.90;;;;;;5015595;28;20197;-86
2021/11/04 07:13:40;;;;;;;45.03;24.37;;;5.80;99.90;;;;;;5017524;28;20213;-85
2021/11/04 07:16:06;;;;;;;62.00;25.07;;;5.80;99.90;;;;;;5016039;28;20190;-86
2021/11/04 07:18:35;;;;;;;52.50;25.93;;;5.80;99.90;;;;;;5015540;28;20213;-89
2021/11/04 07:21:10;;;;;;;47.43;24.40;;;5.90;99.90;;;;;;5015348;28;20179;-86
2021/11/04 07:23:46;;;;;;;59.50;25.80;;;5.80;99.90;;;;;;5019654;28;20268;-84
2021/11/04 07:26:12;;;;;;;77.53;26.97;;;5.80;99.90;;;;;;5020732;28;20249;-85
2021/11/04 07:28:43;;;;;;;47.50;27.23;;;6.10;99.90;;;;;;5022026;28;20245;-84
2021/11/04 07:31:13;;;;;;;44.63;26.70;;;5.70;99.90;;;;;;5022293;28;20175;-86
2021/11/04 07:33:45;;;;;;;49.40;26.93;;;5.80;99.90;;;;;;5028588;28;20166;-86
2021/11/04 07:36:15;;;;;;;51.20;25.73;;;5.70;99.90;;;;;;5032235;28;20677;-83
2021/11/04 07:38:47;;;;;;;47.37;24.67;;;5.90;99.90;;;;;;5018212;28;20712;-87
2021/11/04 07:41:14;;;;;;;51.70;26.07;;;6.00;99.90;;;;;;5017286;28;20194;-86
2021/11/04 07:43:40;;;;;;;38.07;25.13;;;6.20;99.90;;;;;;5016438;28;20186;-84
2021/11/04 07:46:06;;;;;;;45.60;24.60;;;6.10;99.90;;;;;;5015839;28;20715;-85
2021/11/04 07:48:32;;;;;;;51.47;23.77;;;6.00;99.90;;;;;;5015553;28;20577;-86
2021/11/04 07:51:01;;;;;;;55.33;24.90;;;5.80;99.90;;;;;;5020446;28;20276;-84
2021/11/04 07:53:27;;;;;;;38.53;24.33;;;5.90;99.90;;;;;;5032030;28;20181;-87
2021/11/04 07:55:54;;;;;;;71.23;26.20;;;6.00;99.90;;;;;;5037226;28;20591;-86
2021/11/04 07:58:21;;;;;;;66.70;26.10;;;5.90;99.90;;;;;;5037083;28;20193;-86
2021/11/04 08:00:54;;;;;;;56.03;26.77;;;5.90;99.90;;;;;;5006571;28;20193;-86
2021/11/04 08:03:22;;;;;;;61.20;27.30;;;5.80;99.90;;;;;;5017848;28;20236;-89
2021/11/04 08:05:52;;;;;;;36.63;25.53;;;6.10;99.90;;;;;;5023517;28;20174;-87
2021/11/04 08:08:21;;;;;;;46.77;24.80;;;6.00;99.90;;;;;;5017476;28;20226;-87
2021/11/04 08:10:52;;;;;;;41.53;25.93;;;6.00;99.90;;;;;;5035532;28;20177;-85
2021/11/04 08:13:22;;;;;;;42.23;24.73;;;6.10;99.90;;;;;;5036409;28;20224;-86
2021/11/04 08:15:49;;;;;;;76.17;26.20;;;6.30;99.90;;;;;;5034884;28;20178;-86
2021/11/04 08:18:20;;;;;;;48.57;25.67;;;6.30;99.90;;;;;;5035178;28;20280;-86
2021/11/04 08:20:46;;;;;;;40.07;24.13;;;6.40;99.90;;;;;;5035946;28;20212;-84
2021/11/04 08:23:16;;;;;;;35.97;26.20;;;6.50;99.90;;;;;;5027436;28;20613;-85
2021/11/04 08:25:43;;;;;;;39.10;24.00;;;6.50;99.90;;;;;;5019131;28;20646;-84
2021/11/04 08:28:10;;;;;;;39.00;25.23;;;6.60;99.90;;;;;;5024127;28;20232;-84
2021/11/04 08:30:38;;;;;;;36.00;25.33;;;6.60;99.90;;;;;;5028158;28;20646;-84
2021/11/04 08:33:06;;;;;;;34.80;23.80;;;6.50;99.90;;;;;;5035857;28;20235;-83
2021/11/04 08:35:33;;;;;;;41.70;21.60;;;6.50;99.90;;;;;;5033055;28;20166;-84
2021/11/04 08:37:59;;;;;;;45.03;23.57;;;6.60;99.90;;;;;;5037263;28;20228;-85
2021/11/04 08:40:27;;;;;;;41.57;22.73;;;6.70;99.90;;;;;;5036394;28;20189;-85
2021/11/04 08:42:53;;;;;;;29.77;22.50;;;6.80;99.90;;;;;;5038146;28;20201;-84
2021/11/04 08:45:19;;;;;;;32.80;22.50;;;6.90;99.90;;;;;;5035255;28;20185;-88
2021/11/04 08:47:46;;;;;;;30.00;22.30;;;7.00;99.90;;;;;;5036973;28;20221;-88
2021/11/04 08:50:13;;;;;;;31.43;21.63;;;6.70;99.90;;;;;;5032410;28;20198;-86
2021/11/04 08:52:39;;;;;;;33.47;20.10;;;6.70;99.90;;;;;;5025306;28;20239;-87
2021/11/04 08:55:07;;;;;;;30.87;20.10;;;6.80;99.90;;;;;;5028175;28;20178;-87
2021/11/04 08:57:34;;;;;;;34.63;21.47;;;6.80;99.90;;;;;;5037469;28;20525;-85
2021/11/04 09:00:00;;;;;;;31.87;20.63;;;6.80;99.90;;;;;;5032204;28;20175;-85
2021/11/04 09:02:29;;;;;;;29.30;19.97;;;6.80;99.90;;;;;;5029824;28;20185;-87
2021/11/04 09:04:56;;;;;;;28.97;20.20;;;6.80;99.90;;;;;;5026529;28;20265;-93
2021/11/04 09:07:25;;;;;;;31.30;21.60;;;6.80;99.90;;;;;;5022026;28;20257;-92
2021/11/04 09:09:57;;;;;;;30.00;20.70;;;6.80;99.90;;;;;;5020769;28;20166;-93
2021/11/04 09:12:24;;;;;;;27.13;21.50;;;6.80;99.90;;;;;;5019118;28;20179;-88
2021/11/04 09:14:52;;;;;;;29.13;20.87;;;6.90;99.90;;;;;;5017922;28;20523;-92
2021/11/04 09:17:18;;;;;;;27.63;20.57;;;7.10;99.90;;;;;;5018654;28;20275;-91
2021/11/04 09:19:51;;;;;;;27.63;20.23;;;7.20;99.90;;;;;;5016158;28;20213;-85
2021/11/04 09:22:20;;;;;;;33.37;22.10;;;7.30;99.90;;;;;;5026797;28;20186;-86
2021/11/04 09:25:03;;;;;;;30.20;22.23;;;7.40;99.90;;;;;;5034726;28;20185;-85
2021/11/04 09:27:29;;;;;;;31.00;22.60;;;7.30;99.90;;;;;;5021088;28;20214;-87
2021/11/04 09:29:56;;;;;;;31.93;22.07;;;7.50;99.90;;;;;;5019137;28;20276;-87
2021/11/04 09:32:25;;;;;;;32.17;22.63;;;7.60;99.90;;;;;;5035538;28;20174;-87
2021/11/04 09:34:52;;;;;;;33.77;23.60;;;7.60;99.90;;;;;;5031425;28;20210;-86
2021/11/04 09:37:18;;;;;;;32.43;22.67;;;7.50;99.90;;;;;;5029048;28;20278;-86
2021/11/04 09:39:48;;;;;;;32.30;22.93;;;7.60;99.90;;;;;;5025599;28;20182;-85
2021/11/04 09:42:18;;;;;;;34.73;24.47;;;7.60;99.90;;;;;;5026095;28;20201;-86
2021/11/04 09:44:48;;;;;;;31.77;21.20;;;7.70;99.90;;;;;;5027007;28;20220;-83
2021/11/04 09:47:31;;;;;;;32.10;22.70;;;7.70;99.90;;;;;;5029298;28;20214;-83
2021/11/04 09:50:01;;;;;;;26.87;20.93;;;7.80;99.90;;;;;;5015096;28;20273;-87
2021/11/04 09:52:31;;;;;;;31.03;21.57;;;7.90;99.90;;;;;;5025186;28;20212;-86
2021/11/04 09:54:58;;;;;;;28.47;20.97;;;8.00;99.90;;;;;;5030296;28;20186;-82
2021/11/04 09:57:27;;;;;;;29.73;20.50;;;8.00;99.90;;;;;;5024951;28;20194;-85
2021/11/04 09:59:58;;;;;;;28.97;22.73;;;8.10;99.90;;;;;;5028615;28;20187;-86
2021/11/04 10:02:28;;;;;;;30.00;21.40;;;8.40;99.90;;;;;;5015557;28;20209;-85
2021/11/04 10:05:26;;;;;;;31.50;21.53;;;8.40;99.90;;;;;;5024103;28;20654;-85
2021/11/04 10:07:51;;;;;;;34.53;21.97;;;8.40;99.90;;;;;;5040664;28;20221;-85
2021/11/04 10:10:20;;;;;;;28.57;21.10;;;8.40;99.90;;;;;;5041169;28;20268;-83
2021/11/04 10:13:04;;;;;;;27.60;20.80;;;8.40;99.90;;;;;;5037934;28;20189;-86
2021/11/04 10:15:33;;;;;;;30.53;21.17;;;8.50;99.90;;;;;;5035824;28;20173;-85
2021/11/04 10:18:18;;;;;;;27.43;19.60;;;8.60;99.90;;;;;;5038202;28;20347;-84
2021/11/04 10:20:53;;;;;;;26.50;20.00;;;8.80;99.90;;;;;;5035936;28;20186;-85
2021/11/04 10:23:18;;;;;;;27.50;20.37;;;9.00;99.90;;;;;;5035416;28;20180;-85
2021/11/04 10:25:46;;;;;;;27.60;19.57;;;8.90;99.90;;;;;;5035140;28;20178;-84
2021/11/04 10:28:29;;;;;;;24.00;18.77;;;9.20;99.90;;;;;;5018338;28;20226;-86
2021/11/04 10:30:58;;;;;;;22.57;18.20;;;9.20;99.90;;;;;;5023131;28;20231;-85
2021/11/04 10:33:27;;;;;;;26.27;19.13;;;9.30;99.90;;;;;;5013480;28;20526;-86
2021/11/04 10:36:04;;;;;;;23.87;18.17;;;9.30;99.90;;;;;;5015029;28;20265;-83
2021/11/04 10:38:48;;;;;;;23.30;18.37;;;9.20;99.90;;;;;;5015814;28;20201;-84
2021/11/04 10:41:28;;;;;;;23.67;17.30;;;9.20;99.90;;;;;;5015951;28;20182;-85
2021/11/04 10:43:57;;;;;;;23.40;17.90;;;9.10;99.90;;;;;;5014065;28;20192;-85
2021/11/04 10:46:27;;;;;;;24.93;18.20;;;9.30;99.90;;;;;;5014860;28;20185;-86
2021/11/04 10:49:01;;;;;;;23.37;18.20;;;9.40;99.90;;;;;;5015221;28;20206;-86
2021/11/04 10:51:28;;;;;;;23.00;16.07;;;9.50;99.90;;;;;;5014345;28;20177;-86
2021/11/04 10:54:00;;;;;;;21.57;15.90;;;9.40;99.90;;;;;;5013783;28;20252;-86
2021/11/04 10:56:27;;;;;;;22.03;16.90;;;9.50;99.90;;;;;;5014459;28;20189;-82
2021/11/04 10:58:54;;;;;;;22.50;17.27;;;9.80;99.90;;;;;;5023286;28;20167;-86
2021/11/04 11:01:42;;;;;;;21.27;17.47;;;9.80;99.90;;;;;;5022059;28;20717;-82
2021/11/04 11:04:12;;;;;;;21.73;17.00;;;9.80;99.90;;;;;;5021732;28;20186;-81
2021/11/04 11:06:43;;;;;;;21.33;15.97;;;9.90;99.90;;;;;;5021790;28;20360;-82
2021/11/04 11:09:12;;;;;;;21.67;15.27;;;9.80;99.90;;;;;;5028693;28;20198;-80
2021/11/04 11:11:40;;;;;;;18.70;15.03;;;9.70;99.90;;;;;;5033910;28;20212;-81
2021/11/04 11:14:08;;;;;;;21.53;15.97;;;10.00;99.90;;;;;;5033684;28;20339;-83
2021/11/04 11:16:43;;;;;;;17.03;15.13;;;10.00;99.90;;;;;;5019009;28;20184;-80
2021/11/04 11:19:12;;;;;;;20.10;15.73;;;10.10;99.90;;;;;;5024730;28;20209;-87
2021/11/04 11:21:42;;;;;;;18.60;14.83;;;10.10;99.90;;;;;;5037125;28;20181;-86
2021/11/04 11:24:12;;;;;;;19.17;14.57;;;10.00;99.90;;;;;;5037479;28;20181;-85
2021/11/04 11:26:39;;;;;;;22.17;15.33;;;10.00;99.90;;;;;;5040627;28;20249;-87
2021/11/04 11:29:07;;;;;;;20.47;15.07;;;9.80;99.90;;;;;;5038130;28;20225;-85
2021/11/04 11:31:33;;;;;;;17.87;14.40;;;9.80;99.90;;;;;;5032779;28;20220;-86
2021/11/04 11:34:05;;;;;;;21.27;16.03;;;9.90;99.90;;;;;;5037932;28;20185;-86
2021/11/04 11:36:32;;;;;;;18.90;15.13;;;9.90;99.90;;;;;;5034821;28;20193;-86
2021/11/04 11:38:59;;;;;;;17.10;14.57;;;10.10;99.90;;;;;;5036162;28;20192;-85
2021/11/04 11:41:51;;;;;;;19.53;15.33;;;10.20;99.90;;;;;;5024530;28;20198;-86
2021/11/04 11:44:40;;;;;;;19.20;14.87;;;10.20;99.90;;;;;;5022744;28;20197;-85
2021/11/04 11:47:17;;;;;;;19.60;16.10;;;10.10;99.90;;;;;;5035669;28;20741;-87
2021/11/04 11:49:45;;;;;;;19.70;15.77;;;10.00;99.90;;;;;;5038653;28;20215;-89
2021/11/04 11:52:49;;;;;;;24.97;17.43;;;10.00;99.90;;;;;;5023006;28;20186;-85
2021/11/04 11:55:19;;;;;;;22.93;17.53;;;10.10;99.90;;;;;;5024574;28;20708;-88
2021/11/04 11:58:27;;;;;;;24.37;17.20;;;10.00;99.90;;;;;;5036174;28;20528;-89
2021/11/04 12:00:53;;;;;;;24.77;16.67;;;10.00;99.90;;;;;;5042024;28;20185;-90
2021/11/04 12:03:40;;;;;;;21.33;16.63;;;10.10;99.90;;;;;;5041497;28;20545;-90
2021/11/04 12:06:15;;;;;;;21.53;16.17;;;10.40;99.90;;;;;;5043636;28;20198;-89
2021/11/04 12:08:51;;;;;;;20.77;15.40;;;10.40;99.90;;;;;;5038359;28;20193;-91
2021/11/04 12:11:41;;;;;;;20.47;16.30;;;10.60;99.90;;;;;;5022184;28;20277;-91
2021/11/04 12:14:21;;;;;;;19.10;14.87;;;10.60;99.90;;;;;;5032005;28;20170;-86
2021/11/04 12:17:06;;;;;;;16.97;14.23;;;10.70;99.90;;;;;;5022448;28;20178;-83
2021/11/04 12:19:55;;;;;;;18.93;14.33;;;10.90;99.90;;;;;;5033441;28;20213;-86
2021/11/04 12:22:21;;;;;;;17.93;13.90;;;11.00;99.90;;;;;;5023992;28;20182;-84
2021/11/04 12:25:00;;;;;;;17.57;13.70;;;11.00;99.90;;;;;;5025503;28;20603;-85
2021/11/04 12:27:28;;;;;;;18.33;13.93;;;11.00;99.90;;;;;;5023365;28;20312;-87
2021/11/04 12:29:55;;;;;;;18.10;14.07;;;11.30;99.90;;;;;;5020946;28;20230;-85
2021/11/04 12:32:25;;;;;;;18.97;13.27;;;11.20;99.90;;;;;;5040906;28;20186;-84
2021/11/04 12:35:17;;;;;;;16.07;12.87;;;11.20;99.90;;;;;;5041643;28;20185;-83
2021/11/04 12:37:43;;;;;;;15.47;11.97;;;11.40;99.90;;;;;;5037286;28;20257;-85
2021/11/04 12:40:14;;;;;;;15.30;12.60;;;11.20;99.90;;;;;;5042667;28;20271;-86
2021/11/04 12:42:44;;;;;;;15.23;11.63;;;11.40;99.90;;;;;;5036184;28;20656;-86
2021/11/04 12:45:26;;;;;;;16.90;12.83;;;11.70;99.90;;;;;;5036567;28;20186;-86
2021/11/04 12:48:02;;;;;;;13.50;11.37;;;11.80;99.90;;;;;;5033203;28;20212;-88
2021/11/04 12:50:33;;;;;;;15.57;12.20;;;11.80;99.90;;;;;;5034255;28;20181;-87